FYWH/WDH METAR and TAF weather

Enter ICAO airport designator
Station Type Date Time Source
FYWH METAR 2019/08/25 02:00 UTC NOAA

FYWH 250200Z 25004KT CAVOK 06/M10 Q1028 NOSIG


Station Type Date Time Source
FYWH Decoded METAR 2019/08/25 02:00 UTC NOAA

Station name not available
Aug 24, 2019 - 10:00 PM EDT / 2019.08.25 0200 UTC
Wind: from the WSW (250 degrees) at 5 MPH (4 KT):0
Visibility: greater than 7 mile(s):0
Temperature: 42 F (6 C)
Dew Point: 14 F (-10 C)
Relative Humidity: 30%
Pressure (altimeter): 30.36 in. Hg (1028 hPa)
ob: FYWH 250200Z 25004KT CAVOK 06/M10 Q1028 NOSIG
cycle: 2

Station Type Date Time Source
FYWH TAF 2019/08/24 18:03 UTC NOAA

TAF FYWH 241600Z 2418/2518 11008KT CAVOK
BECMG 2509/2511 05016KT
BECMG 2515/2517 05006KT

Example: see airport list